Aérodrome :
LOGIN :

S'inscrire | Disclaimer

   EN    FR    IT 

 










Légende :    VFR   VFR Marginal   IFR   IFR Intensif   IFR Très Intensif
Visi : 
Plafond : 
>= 8 km
>= 3000ft
5 à 8 km
1000 à 3000 ft
1500m à 5 km
500 à 1000 ft
800 à 1500m
200 à 500 ft
< 800m
< 200 ft
Symboles :   Orages  Brouillard  Fortes neiges  Fortes précipitations  Vent > 20 kt
SIGMETs :   Divers  Orages  Givrage  Turbulence  Onde Orograph.  Cendres Volcan.






- Altitude de l'aérodrome : 16 ft
- Code IATA : SDR


LEXJ - Santander Cantabria

DERNIER METAR :
  • 031930Z 21012KT 160V260 9999 -RA FEW060 SCT075 14/05 Q1010

METARs EXPIRÉS :
  • 031900Z 20012G24KT 160V240 9999 -RA FEW060 BKN075 13/06 Q1011
  • 031830Z 20014G25KT 160V250 9999 -RA BKN068 13/06 Q1012
  • 031800Z 21012G25KT 160V260 9999 BKN070 14/05 Q1013
  • 031730Z 21014G26KT 160V260 CAVOK 13/04 Q1013
  • 031700Z 21011G22KT 170V260 CAVOK 13/04 Q1014
  • 031630Z 21011KT 170V260 CAVOK 13/04 Q1014
  • 031600Z 21010KT 160V250 CAVOK 13/04 Q1014
  • 031530Z 21010KT 160V280 CAVOK 13/04 Q1014
  • 031500Z 21010G21KT 180V240 CAVOK 13/04 Q1015

TAF AMD TAF LEXJ
Valide du 03 à 17h jusqu'au 04 à 15h UTC


031717Z 0317/0415 20014KT 9999 FEW040 TX13/0317Z TN11/0405Z
TEMPO 0317/0409 20018G32KT
PROB40
TEMPO 0321/0402 20022G42KT
PROB30
TEMPO 0321/0401 RA
BECMG 0409/0411 27014KT
TEMPO 0410/0415 28018G32KT 3000 SHRA SCT020TCU



MET'MAP, la Météo Aéronautique d'un coup d'oeil ! - Copyright ORBIFLY Décembre 2007 - Disclaimer

ORBIFLY MET'MAP TEAM :

Programmation & Développement : Alexandra Zaïnal
Sur une idée originale de : Baudouin d'Aumeries
Soutien technique & logistique : Manuel Goepfert
Assistance : Marc-Olivier Méhu




SOURCES & CREDITS :

   NOAA